Time;durP1;ratioP1;P1;durP2;ratioP2;P2;SDS_P1;SDS_P2;PMS_P1;PMS_P2;Temp;Humidity;BMP_temperature;BMP_pressure;BME280_temperature;BME280_humidity;BME280_pressure;Samples;Min_cycle;Max_cycle;Signal;HPM_P1;HPM_P2
2022/04/01 00:01:55;;;;;;;2.45;1.63;;;;;;;;;;5071619;28;20476;-64
2022/04/01 00:04:21;;;;;;;4.88;2.05;;;;;;;;;;5055904;28;20101;-64
2022/04/01 00:06:48;;;;;;;6.25;2.45;;;;;;;;;;5072114;28;20029;-64
2022/04/01 00:09:14;;;;;;;4.03;2.42;;;;;;;;;;5071993;28;20020;-64
2022/04/01 00:11:40;;;;;;;3.47;2.10;;;;;;;;;;5071973;28;20029;-64
2022/04/01 00:14:06;;;;;;;4.13;2.28;;;;;;;;;;5071411;28;20045;-64
2022/04/01 00:16:32;;;;;;;7.03;2.70;;;;;;;;;;5072201;28;20024;-64
2022/04/01 00:18:58;;;;;;;4.40;2.40;;;;;;;;;;5071976;28;20408;-64
2022/04/01 00:21:25;;;;;;;2.33;2.13;;;;;;;;;;5071887;28;20028;-64
2022/04/01 00:23:51;;;;;;;5.45;2.55;;;;;;;;;;5071717;28;20032;-64
2022/04/01 00:26:17;;;;;;;5.90;2.78;;;;;;;;;;5071483;28;20035;-64
2022/04/01 00:28:43;;;;;;;2.80;2.22;;;;;;;;;;5072146;28;20027;-64
2022/04/01 00:31:09;;;;;;;7.32;2.70;;;;;;;;;;5071805;28;20086;-64
2022/04/01 00:33:36;;;;;;;5.40;1.92;;;;;;;;;;5070701;28;20024;-64
2022/04/01 00:36:02;;;;;;;5.15;2.70;;;;;;;;;;5071610;28;20392;-64
2022/04/01 00:38:28;;;;;;;4.30;2.08;;;;;;;;;;5071547;28;20029;-64
2022/04/01 00:40:54;;;;;;;2.75;1.38;;;;;;;;;;5071969;28;20134;-64
2022/04/01 00:43:31;;;;;;;1.85;1.20;;;;;;;;;;5071466;28;20029;-64
2022/04/01 00:45:57;;;;;;;3.55;1.40;;;;;;;;;;5071806;28;20028;-64
2022/04/01 00:48:24;;;;;;;2.15;1.48;;;;;;;;;;5070786;28;20025;-64
2022/04/01 00:50:50;;;;;;;4.72;1.70;;;;;;;;;;5070386;28;20029;-64
2022/04/01 00:53:20;;;;;;;5.63;2.97;;;;;;;;;;5071320;28;20008;-64
2022/04/01 00:55:47;;;;;;;5.72;1.73;;;;;;;;;;5071713;28;20221;-64
2022/04/01 00:58:15;;;;;;;4.72;1.95;;;;;;;;;;5069963;28;20366;-64
2022/04/01 01:00:41;;;;;;;7.45;1.77;;;;;;;;;;5071572;28;20024;-64
2022/04/01 01:03:07;;;;;;;4.57;2.00;;;;;;;;;;5071485;28;20020;-64
2022/04/01 01:05:34;;;;;;;10.80;2.25;;;;;;;;;;5071481;28;20047;-64
2022/04/01 01:08:05;;;;;;;7.45;2.05;;;;;;;;;;5070136;28;20031;-64
2022/04/01 01:10:31;;;;;;;8.98;2.08;;;;;;;;;;5055603;28;20454;-64
2022/04/01 01:12:57;;;;;;;8.48;3.30;;;;;;;;;;5071525;28;20111;-64
2022/04/01 01:15:25;;;;;;;7.03;1.77;;;;;;;;;;5073181;28;20045;-64
2022/04/01 01:17:51;;;;;;;6.00;1.98;;;;;;;;;;5074067;28;20078;-64
2022/04/01 01:20:18;;;;;;;6.07;2.15;;;;;;;;;;5073522;28;20029;-64
2022/04/01 01:22:49;;;;;;;9.43;2.22;;;;;;;;;;5074668;28;20034;-64
2022/04/01 01:25:16;;;;;;;5.53;2.40;;;;;;;;;;5073574;28;20028;-64
2022/04/01 01:27:43;;;;;;;8.40;2.30;;;;;;;;;;5073753;28;20020;-64
2022/04/01 01:30:10;;;;;;;6.28;2.17;;;;;;;;;;5073453;28;20071;-64
2022/04/01 01:32:37;;;;;;;6.93;2.30;;;;;;;;;;5074958;28;20376;-64
2022/04/01 01:35:05;;;;;;;4.95;1.90;;;;;;;;;;5074897;28;20508;-64
2022/04/01 01:37:31;;;;;;;13.02;2.38;;;;;;;;;;5074467;28;20028;-64
2022/04/01 01:39:58;;;;;;;8.70;2.10;;;;;;;;;;5074795;28;20466;-64
2022/04/01 01:42:25;;;;;;;5.38;2.22;;;;;;;;;;5072892;28;20115;-64
2022/04/01 01:44:51;;;;;;;7.80;2.70;;;;;;;;;;5074677;28;20036;-64
2022/04/01 01:47:17;;;;;;;7.32;2.40;;;;;;;;;;5073265;28;20492;-64
2022/04/01 01:54:43;;;;;;;9.80;2.42;;;;;;;;;;5073352;28;20048;-64
2022/04/01 01:55:14;;;;;;;8.18;2.35;;;;;;;;;;5073248;28;20089;-64
2022/04/01 01:57:41;;;;;;;6.88;2.08;;;;;;;;;;5073250;28;20036;-65
2022/04/01 02:00:16;;;;;;;7.57;2.05;;;;;;;;;;5073189;28;20035;-65
2022/04/01 02:02:43;;;;;;;4.25;1.80;;;;;;;;;;5056512;28;20043;-64
2022/04/01 02:05:09;;;;;;;5.38;1.50;;;;;;;;;;5074272;28;20036;-64
2022/04/01 02:07:36;;;;;;;7.28;1.77;;;;;;;;;;5072751;28;20392;-64
2022/04/01 02:10:02;;;;;;;7.78;1.70;;;;;;;;;;5074339;28;20037;-64
2022/04/01 02:12:30;;;;;;;3.95;1.48;;;;;;;;;;5073835;28;21019;-64
2022/04/01 02:14:57;;;;;;;7.45;1.75;;;;;;;;;;5072769;28;20046;-64
2022/04/01 02:17:24;;;;;;;8.50;1.75;;;;;;;;;;5072709;28;20052;-64
2022/04/01 02:19:50;;;;;;;5.45;1.77;;;;;;;;;;5072725;28;20385;-64
2022/04/01 02:22:17;;;;;;;3.17;1.40;;;;;;;;;;5072374;28;20568;-64
2022/04/01 02:24:44;;;;;;;11.10;1.52;;;;;;;;;;5072545;28;20050;-64
2022/04/01 02:27:10;;;;;;;9.30;2.22;;;;;;;;;;5072490;28;20036;-64
2022/04/01 02:29:36;;;;;;;5.32;1.52;;;;;;;;;;5072588;28;20100;-64
2022/04/01 02:32:31;;;;;;;4.63;1.35;;;;;;;;;;5073253;28;20040;-64
2022/04/01 02:35:23;;;;;;;3.80;1.60;;;;;;;;;;5073141;28;20037;-64
2022/04/01 02:37:50;;;;;;;7.70;1.75;;;;;;;;;;5072529;28;20124;-64
2022/04/01 02:40:16;;;;;;;8.43;1.60;;;;;;;;;;5072054;28;20060;-64
2022/04/01 02:42:42;;;;;;;8.15;1.67;;;;;;;;;;5072400;28;20480;-64
2022/04/01 02:45:14;;;;;;;7.45;1.70;;;;;;;;;;5072179;28;20021;-64
2022/04/01 02:47:41;;;;;;;9.82;1.50;;;;;;;;;;5071493;28;20032;-64
2022/04/01 02:50:07;;;;;;;5.28;1.55;;;;;;;;;;5071964;28;20025;-64
2022/04/01 02:52:33;;;;;;;6.25;1.70;;;;;;;;;;5073208;28;20104;-64
2022/04/01 02:55:00;;;;;;;4.20;1.35;;;;;;;;;;5072018;28;20028;-64
2022/04/01 02:57:27;;;;;;;7.10;1.63;;;;;;;;;;5071764;28;20032;-64
2022/04/01 02:59:53;;;;;;;5.40;1.73;;;;;;;;;;5072047;28;20047;-64
2022/04/01 03:02:20;;;;;;;6.63;1.45;;;;;;;;;;5071678;28;20048;-64
2022/04/01 03:04:47;;;;;;;4.90;1.60;;;;;;;;;;5071518;28;20028;-64
2022/04/01 03:07:13;;;;;;;9.15;3.25;;;;;;;;;;5071964;28;20086;-64
2022/04/01 03:09:39;;;;;;;10.13;1.50;;;;;;;;;;5071474;28;20021;-64
2022/04/01 03:12:13;;;;;;;3.10;1.60;;;;;;;;;;5071960;28;20119;-64
2022/04/01 03:15:02;;;;;;;5.57;1.42;;;;;;;;;;5070627;28;20420;-64
2022/04/01 03:17:55;;;;;;;;;;;;;;;;;;5011313;28;20498;-64
2022/04/01 03:20:29;;;;;;;7.68;1.67;;;;;;;;;;5010349;28;20004;-64
2022/04/01 03:22:57;;;;;;;3.67;1.65;;;;;;;;;;4994653;28;20038;-64
2022/04/01 03:25:32;;;;;;;11.90;2.25;;;;;;;;;;4994277;28;20034;-64
2022/04/01 03:28:14;;;;;;;4.50;1.75;;;;;;;;;;4994532;28;20037;-65
2022/04/01 03:30:41;;;;;;;3.67;1.70;;;;;;;;;;4994180;28;20529;-64
2022/04/01 03:33:08;;;;;;;13.93;1.80;;;;;;;;;;4994161;28;20030;-64
2022/04/01 03:35:35;;;;;;;8.93;1.80;;;;;;;;;;4994089;28;20391;-64
2022/04/01 03:38:03;;;;;;;8.85;1.77;;;;;;;;;;4993692;28;20042;-64
2022/04/01 03:40:29;;;;;;;6.78;1.48;;;;;;;;;;4994026;28;20037;-64
2022/04/01 03:42:56;;;;;;;4.38;1.40;;;;;;;;;;4994070;28;20041;-64
2022/04/01 03:45:22;;;;;;;2.08;1.33;;;;;;;;;;4993953;28;20124;-64
2022/04/01 03:48:10;;;;;;;3.85;1.27;;;;;;;;;;4993869;28;20038;-64
2022/04/01 03:50:39;;;;;;;8.80;1.88;;;;;;;;;;4993166;28;20549;-64
2022/04/01 03:53:07;;;;;;;4.65;1.75;;;;;;;;;;4992010;28;20034;-64
2022/04/01 03:55:39;;;;;;;5.95;1.48;;;;;;;;;;5057151;28;20036;-64
2022/04/01 03:58:30;;;;;;;8.07;2.88;;;;;;;;;;5079673;28;20040;-65
2022/04/01 04:01:14;;;;;;;7.85;1.92;;;;;;;;;;5071563;28;20039;-65
2022/04/01 04:03:41;;;;;;;3.90;1.58;;;;;;;;;;5085714;28;20051;-65
2022/04/01 04:06:09;;;;;;;3.30;1.58;;;;;;;;;;5080346;28;20404;-65
2022/04/01 04:08:36;;;;;;;6.80;2.10;;;;;;;;;;5086052;28;20032;-65
2022/04/01 04:11:05;;;;;;;4.40;1.60;;;;;;;;;;5078879;28;20547;-65
2022/04/01 04:13:44;;;;;;;6.40;1.80;;;;;;;;;;5080879;28;20055;-65
2022/04/01 04:16:13;;;;;;;4.93;2.15;;;;;;;;;;5081615;28;20071;-65
2022/04/01 04:18:43;;;;;;;6.32;1.42;;;;;;;;;;5080110;28;20040;-65
2022/04/01 04:21:19;;;;;;;8.85;1.80;;;;;;;;;;5056588;28;20032;-65
2022/04/01 04:23:47;;;;;;;6.00;1.67;;;;;;;;;;5075614;28;20047;-65
2022/04/01 04:26:16;;;;;;;3.15;1.35;;;;;;;;;;5085101;28;20069;-65
2022/04/01 04:28:49;;;;;;;9.10;1.88;;;;;;;;;;5080012;28;20132;-65
2022/04/01 04:31:57;;;;;;;3.85;1.33;;;;;;;;;;5075543;28;20036;-65
2022/04/01 04:34:27;;;;;;;6.72;1.48;;;;;;;;;;5070231;28;20392;-65
2022/04/01 04:36:57;;;;;;;6.78;1.60;;;;;;;;;;5068227;28;20029;-65
2022/04/01 04:39:31;;;;;;;4.47;1.38;;;;;;;;;;5068818;28;20052;-65
2022/04/01 04:41:58;;;;;;;5.60;1.35;;;;;;;;;;5068561;28;20028;-65
2022/04/01 04:44:28;;;;;;;6.82;1.55;;;;;;;;;;5068594;28;20038;-65
2022/04/01 04:46:55;;;;;;;7.28;0.90;;;;;;;;;;5067313;28;20511;-65
2022/04/01 04:49:27;;;;;;;6.38;1.20;;;;;;;;;;5071362;28;20107;-65
2022/04/01 04:51:54;;;;;;;3.42;1.20;;;;;;;;;;5071924;28;20032;-65
2022/04/01 04:54:40;;;;;;;3.78;1.25;;;;;;;;;;5073894;28;20036;-65
2022/04/01 04:57:16;;;;;;;9.88;1.60;;;;;;;;;;5072135;28;20036;-65
2022/04/01 04:59:43;;;;;;;3.70;1.20;;;;;;;;;;5071694;28;20032;-65
2022/04/01 05:02:16;;;;;;;9.20;1.63;;;;;;;;;;5072224;28;20020;-65
2022/04/01 05:04:43;;;;;;;4.75;1.30;;;;;;;;;;5072315;28;20138;-65
2022/04/01 05:07:13;;;;;;;6.70;1.40;;;;;;;;;;5072634;28;20287;-65
2022/04/01 05:10:09;;;;;;;2.15;1.30;;;;;;;;;;5073678;28;20722;-65
2022/04/01 05:12:36;;;;;;;3.75;1.05;;;;;;;;;;5072307;28;20028;-65
2022/04/01 05:15:24;;;;;;;6.65;2.03;;;;;;;;;;5073354;28;20052;-64
2022/04/01 05:17:56;;;;;;;5.18;1.20;;;;;;;;;;5071811;28;20036;-64
2022/04/01 05:20:28;;;;;;;3.42;1.27;;;;;;;;;;5072293;28;20206;-65
2022/04/01 05:23:01;;;;;;;7.57;1.60;;;;;;;;;;5071920;28;20514;-65
2022/04/01 05:25:31;;;;;;;4.82;1.42;;;;;;;;;;5072297;28;20475;-65
2022/04/01 05:28:01;;;;;;;10.07;1.40;;;;;;;;;;5071824;28;20378;-65
2022/04/01 05:30:40;;;;;;;3.80;1.10;;;;;;;;;;5070878;28;20467;-65
2022/04/01 05:33:10;;;;;;;5.75;1.35;;;;;;;;;;5072367;28;20437;-65
2022/04/01 05:35:38;;;;;;;23.33;3.65;;;;;;;;;;5067750;28;20028;-65
2022/04/01 05:38:07;;;;;;;6.03;1.63;;;;;;;;;;5071035;28;20025;-65
2022/04/01 05:40:35;;;;;;;4.78;1.05;;;;;;;;;;5070892;28;20440;-65
2022/04/01 05:43:04;;;;;;;5.90;1.50;;;;;;;;;;5068735;28;20121;-65
2022/04/01 05:45:53;;;;;;;6.55;1.70;;;;;;;;;;5071772;28;20062;-65
2022/04/01 05:48:20;;;;;;;5.68;1.63;;;;;;;;;;5071913;28;20082;-65
2022/04/01 05:50:50;;;;;;;5.93;1.65;;;;;;;;;;5068068;28;20028;-65
2022/04/01 05:53:16;;;;;;;1.48;0.98;;;;;;;;;;5071740;28;20016;-65
2022/04/01 05:55:47;;;;;;;13.50;1.70;;;;;;;;;;5070618;28;20062;-65
2022/04/01 05:58:14;;;;;;;6.93;1.48;;;;;;;;;;5062173;28;20027;-65
2022/04/01 06:01:00;;;;;;;3.78;1.23;;;;;;;;;;5066458;28;20033;-65
2022/04/01 06:03:35;;;;;;;3.38;1.17;;;;;;;;;;5065751;28;20033;-65
2022/04/01 06:06:05;;;;;;;4.32;1.20;;;;;;;;;;5082512;28;20373;-65
2022/04/01 06:22:58;;;;;;;14.43;1.80;;;;;;;;;;4907848;29;20104;-63
2022/04/01 06:25:29;;;;;;;3.15;1.10;;;;;;;;;;4903978;29;20067;-63
2022/04/01 06:27:59;;;;;;;7.05;1.63;;;;;;;;;;4898882;29;20028;-63
2022/04/01 06:30:26;;;;;;;5.60;1.00;;;;;;;;;;4906055;29;20044;-63
2022/04/01 06:33:35;;;;;;;9.25;2.33;;;;;;;;;;4899206;29;20033;-63
2022/04/01 06:36:14;;;;;;;4.28;1.63;;;;;;;;;;4823808;29;20042;-62
2022/04/01 06:38:53;;;;;;;8.15;2.00;;;;;;;;;;4831033;29;20506;-62
2022/04/01 06:41:20;;;;;;;7.22;1.80;;;;;;;;;;4836755;29;20061;-63
2022/04/01 06:44:05;;;;;;;7.88;1.33;;;;;;;;;;4831754;29;20069;-62
2022/04/01 06:46:51;;;;;;;6.57;1.38;;;;;;;;;;4804273;29;20600;-62
2022/04/01 06:49:22;;;;;;;4.95;1.10;;;;;;;;;;4805326;29;20047;-62
2022/04/01 06:51:48;;;;;;;5.22;1.60;;;;;;;;;;4821230;29;20038;-62
2022/04/01 06:54:33;;;;;;;5.50;1.50;;;;;;;;;;4822467;29;20041;-62
2022/04/01 06:57:18;;;;;;;7.07;1.20;;;;;;;;;;4823042;29;20437;-62
2022/04/01 07:00:20;;;;;;;4.45;1.13;;;;;;;;;;4831380;29;20038;-62
2022/04/01 07:02:48;;;;;;;6.10;1.58;;;;;;;;;;4832197;29;20050;-63
2022/04/01 07:05:14;;;;;;;5.72;1.17;;;;;;;;;;4828806;29;20562;-62
2022/04/01 07:07:42;;;;;;;2.33;1.00;;;;;;;;;;4837612;29;20478;-62
2022/04/01 07:10:09;;;;;;;2.28;0.93;;;;;;;;;;4839123;29;20086;-62
2022/04/01 07:12:36;;;;;;;2.70;1.00;;;;;;;;;;4892803;29;20054;-62
2022/04/01 07:15:02;;;;;;;3.35;1.40;;;;;;;;;;4898686;29;20025;-62
2022/04/01 07:17:28;;;;;;;5.75;1.30;;;;;;;;;;4908238;29;20036;-63
2022/04/01 07:19:55;;;;;;;6.43;1.40;;;;;;;;;;4898508;29;20040;-62
2022/04/01 07:22:21;;;;;;;11.30;1.60;;;;;;;;;;4898519;29;20146;-62
2022/04/01 07:24:48;;;;;;;5.43;1.10;;;;;;;;;;4901284;29;20032;-62
2022/04/01 07:27:14;;;;;;;7.43;1.10;;;;;;;;;;4902801;29;20408;-62
2022/04/01 07:29:40;;;;;;;6.35;1.30;;;;;;;;;;4907296;29;20025;-62
2022/04/01 07:34:52;;;;;;;8.88;1.70;;;;;;;;;;4881146;29;20036;-63
2022/04/01 07:37:22;;;;;;;6.53;1.25;;;;;;;;;;4901654;29;20027;-62
2022/04/01 07:39:48;;;;;;;5.50;1.10;;;;;;;;;;4899921;29;20504;-63
2022/04/01 07:42:14;;;;;;;2.95;0.95;;;;;;;;;;4898171;29;20032;-63
2022/04/01 07:44:40;;;;;;;7.22;1.00;;;;;;;;;;4897578;29;20488;-63
2022/04/01 07:47:10;;;;;;;3.15;0.77;;;;;;;;;;4897969;29;20107;-63
2022/04/01 07:49:40;;;;;;;4.45;1.85;;;;;;;;;;4897936;29;20392;-63
2022/04/01 07:52:10;;;;;;;6.85;1.15;;;;;;;;;;4897210;29;20032;-63
2022/04/01 07:54:37;;;;;;;5.50;1.40;;;;;;;;;;4916929;29;20039;-63
2022/04/01 07:57:06;;;;;;;8.02;1.52;;;;;;;;;;4916588;29;20064;-63
2022/04/01 07:59:32;;;;;;;6.72;1.42;;;;;;;;;;4909773;29;20115;-63
2022/04/01 08:01:59;;;;;;;6.32;1.15;;;;;;;;;;4895139;29;20044;-62
2022/04/01 08:04:25;;;;;;;2.45;1.15;;;;;;;;;;4895458;29;20033;-63
2022/04/01 08:06:52;;;;;;;5.72;1.20;;;;;;;;;;4896200;29;20081;-63
2022/04/01 08:09:18;;;;;;;5.63;1.52;;;;;;;;;;4899716;29;20032;-63
2022/04/01 08:11:44;;;;;;;8.23;1.52;;;;;;;;;;4898696;29;20032;-63
2022/04/01 08:14:10;;;;;;;8.80;1.65;;;;;;;;;;4903725;29;20126;-63
2022/04/01 08:16:36;;;;;;;10.32;1.42;;;;;;;;;;4896569;29;20047;-63
2022/04/01 08:19:03;;;;;;;9.15;1.10;;;;;;;;;;4896953;29;20077;-62
2022/04/01 08:21:30;;;;;;;6.57;1.40;;;;;;;;;;4902347;29;20435;-63
2022/04/01 08:23:57;;;;;;;5.82;1.63;;;;;;;;;;4914565;29;20036;-63
2022/04/01 08:26:24;;;;;;;8.18;1.40;;;;;;;;;;4915367;29;20491;-63
2022/04/01 08:28:50;;;;;;;11.60;1.85;;;;;;;;;;4915832;29;20024;-63
2022/04/01 08:31:16;;;;;;;7.63;1.00;;;;;;;;;;4915309;29;20032;-63
2022/04/01 08:33:43;;;;;;;7.72;1.95;;;;;;;;;;4913321;29;20032;-63
2022/04/01 08:36:09;;;;;;;4.88;0.98;;;;;;;;;;4914863;29;20024;-63
2022/04/01 08:38:35;;;;;;;1.73;0.98;;;;;;;;;;4914545;29;20036;-63
2022/04/01 08:41:02;;;;;;;6.75;1.20;;;;;;;;;;4913163;29;20483;-63
2022/04/01 08:43:30;;;;;;;3.00;1.00;;;;;;;;;;4914392;29;20020;-62
2022/04/01 08:45:57;;;;;;;5.38;1.02;;;;;;;;;;4913836;29;20114;-63
2022/04/01 08:48:24;;;;;;;5.50;0.90;;;;;;;;;;4914418;29;20032;-63
2022/04/01 08:50:50;;;;;;;7.13;1.20;;;;;;;;;;4914493;29;20081;-63
2022/04/01 08:53:17;;;;;;;9.70;1.85;;;;;;;;;;4914115;29;20379;-63
2022/04/01 08:55:47;;;;;;;5.35;1.08;;;;;;;;;;4914493;29;20032;-63
2022/04/01 08:58:16;;;;;;;3.25;1.05;;;;;;;;;;4913629;29;20542;-63
2022/04/01 09:00:43;;;;;;;4.93;1.65;;;;;;;;;;4913188;29;20599;-63
2022/04/01 09:03:11;;;;;;;3.95;1.30;;;;;;;;;;4914095;29;20495;-63
2022/04/01 09:05:37;;;;;;;2.75;0.90;;;;;;;;;;4914356;29;20028;-63
2022/04/01 09:08:07;;;;;;;3.90;1.25;;;;;;;;;;4913961;29;20116;-63
2022/04/01 09:11:01;;;;;;;4.72;1.08;;;;;;;;;;4914259;29;20056;-63
2022/04/01 09:13:29;;;;;;;5.90;1.20;;;;;;;;;;4911309;29;20059;-63
2022/04/01 09:15:55;;;;;;;7.85;1.30;;;;;;;;;;4913760;29;20115;-63
2022/04/01 09:18:33;;;;;;;3.67;1.52;;;;;;;;;;4914351;29;20130;-63
2022/04/01 09:20:59;;;;;;;11.93;1.75;;;;;;;;;;4913773;29;20056;-63
2022/04/01 09:23:26;;;;;;;6.78;1.20;;;;;;;;;;4908771;29;20043;-63
2022/04/01 09:25:52;;;;;;;7.53;1.27;;;;;;;;;;4913833;29;20372;-63
2022/04/01 09:28:41;;;;;;;4.68;0.90;;;;;;;;;;4910450;29;20102;-63
2022/04/01 09:31:15;;;;;;;7.07;1.48;;;;;;;;;;4904898;29;20103;-63
2022/04/01 09:33:47;;;;;;;7.97;1.60;;;;;;;;;;4930483;29;20040;-63
2022/04/01 09:36:17;;;;;;;6.55;1.55;;;;;;;;;;4910718;29;20028;-63
2022/04/01 09:38:56;;;;;;;4.88;2.63;;;;;;;;;;4917637;29;20032;-63
2022/04/01 09:41:27;;;;;;;6.28;1.13;;;;;;;;;;4931097;29;20705;-63
2022/04/01 09:44:00;;;;;;;8.13;1.27;;;;;;;;;;4915000;29;20040;-63
2022/04/01 09:46:27;;;;;;;7.97;1.52;;;;;;;;;;4917416;29;20027;-63
2022/04/01 09:48:58;;;;;;;5.53;0.95;;;;;;;;;;4915976;29;20376;-63
2022/04/01 09:51:29;;;;;;;7.32;1.73;;;;;;;;;;4915935;29;20067;-63
2022/04/01 09:53:58;;;;;;;7.88;3.10;;;;;;;;;;4917639;29;20072;-63
2022/04/01 09:56:44;;;;;;;8.25;3.33;;;;;;;;;;4919839;29;20040;-63
2022/04/01 09:59:11;;;;;;;8.35;1.90;;;;;;;;;;4915487;29;20543;-63
2022/04/01 10:01:38;;;;;;;7.43;1.63;;;;;;;;;;4931899;29;20068;-63
2022/04/01 10:04:04;;;;;;;9.27;1.45;;;;;;;;;;4916935;29;20454;-63
2022/04/01 10:06:31;;;;;;;7.03;1.30;;;;;;;;;;4931228;29;20471;-63
2022/04/01 10:09:00;;;;;;;9.82;1.27;;;;;;;;;;4916378;29;20547;-63
2022/04/01 10:11:27;;;;;;;5.20;1.15;;;;;;;;;;4915863;29;20079;-63
2022/04/01 10:13:54;;;;;;;8.15;1.42;;;;;;;;;;4915996;29;20043;-63
2022/04/01 10:16:21;;;;;;;7.70;1.63;;;;;;;;;;4916221;29;20357;-63
2022/04/01 10:18:48;;;;;;;7.65;1.38;;;;;;;;;;4916730;29;20024;-63
2022/04/01 10:21:15;;;;;;;4.78;0.98;;;;;;;;;;4915922;29;20055;-63
2022/04/01 10:23:44;;;;;;;4.03;1.10;;;;;;;;;;4916934;29;20024;-63
2022/04/01 10:26:15;;;;;;;8.60;1.23;;;;;;;;;;4923061;29;20024;-63
2022/04/01 10:28:44;;;;;;;11.52;3.25;;;;;;;;;;4916520;29;20028;-63
2022/04/01 10:31:13;;;;;;;6.53;1.55;;;;;;;;;;4916178;29;20028;-63
2022/04/01 10:33:39;;;;;;;8.35;1.27;;;;;;;;;;4924052;29;20036;-63
2022/04/01 10:36:24;;;;;;;6.28;1.85;;;;;;;;;;4917792;29;20040;-63
2022/04/01 10:38:59;;;;;;;4.65;1.10;;;;;;;;;;4916763;29;20039;-63
2022/04/01 10:41:25;;;;;;;11.27;1.48;;;;;;;;;;4917750;29;20032;-63
2022/04/01 10:43:54;;;;;;;8.93;1.40;;;;;;;;;;4915767;29;20028;-63
2022/04/01 10:46:21;;;;;;;7.70;1.48;;;;;;;;;;4914385;29;20502;-63
2022/04/01 10:52:02;;;;;;;4.70;1.08;;;;;;;;;;4915510;29;20024;-63
2022/04/01 10:54:28;;;;;;;7.93;1.10;;;;;;;;;;4909266;29;20384;-64
2022/04/01 10:56:54;;;;;;;3.47;1.15;;;;;;;;;;4914366;29;20024;-64
2022/04/01 10:59:23;;;;;;;3.78;1.10;;;;;;;;;;4915786;29;20423;-64
2022/04/01 11:01:52;;;;;;;5.15;1.17;;;;;;;;;;4898572;29;20055;-64
2022/04/01 11:04:19;;;;;;;5.07;1.25;;;;;;;;;;4915720;29;20059;-63
2022/04/01 11:06:52;;;;;;;10.75;1.48;;;;;;;;;;4915979;29;20032;-63
2022/04/01 11:09:37;;;;;;;5.05;1.35;;;;;;;;;;4911655;29;20421;-64
2022/04/01 11:12:19;;;;;;;4.28;1.45;;;;;;;;;;4915432;29;20087;-63
2022/04/01 11:14:58;;;;;;;6.20;1.10;;;;;;;;;;4914460;29;20543;-63
2022/04/01 11:17:29;;;;;;;6.40;1.05;;;;;;;;;;4915665;29;20066;-63
2022/04/01 11:20:04;;;;;;;6.95;1.33;;;;;;;;;;4910031;29;20036;-63
2022/04/01 11:22:34;;;;;;;8.07;1.23;;;;;;;;;;4915207;29;20143;-63
2022/04/01 11:25:00;;;;;;;5.60;1.23;;;;;;;;;;4915553;29;20377;-62
2022/04/01 11:27:27;;;;;;;5.22;0.98;;;;;;;;;;4914618;29;20028;-63
2022/04/01 11:30:06;;;;;;;4.78;1.15;;;;;;;;;;4913250;29;21376;-63
2022/04/01 11:32:36;;;;;;;3.88;1.58;;;;;;;;;;4914674;29;20038;-63
2022/04/01 11:35:03;;;;;;;4.53;1.10;;;;;;;;;;4915337;29;20040;-63
2022/04/01 11:37:29;;;;;;;7.25;1.40;;;;;;;;;;4915763;29;20459;-63
2022/04/01 11:40:11;;;;;;;9.48;1.48;;;;;;;;;;4915229;29;20055;-63
2022/04/01 11:42:58;;;;;;;4.10;1.30;;;;;;;;;;4915382;29;20036;-63
2022/04/01 11:45:26;;;;;;;9.50;1.67;;;;;;;;;;4914501;29;20039;-63
2022/04/01 11:47:52;;;;;;;12.88;1.60;;;;;;;;;;4914661;29;20020;-63
2022/04/01 11:50:20;;;;;;;8.77;1.35;;;;;;;;;;4915507;29;20263;-63
2022/04/01 11:52:47;;;;;;;4.78;1.70;;;;;;;;;;4914565;29;20060;-63
2022/04/01 11:55:24;;;;;;;4.10;0.98;;;;;;;;;;4914794;29;20044;-63
2022/04/01 11:57:51;;;;;;;4.97;1.35;;;;;;;;;;4913870;29;20124;-63
2022/04/01 12:00:18;;;;;;;4.43;1.50;;;;;;;;;;4916062;29;20032;-63
2022/04/01 12:02:47;;;;;;;6.72;1.45;;;;;;;;;;4912759;29;20036;-63
2022/04/01 12:05:13;;;;;;;7.85;1.65;;;;;;;;;;4911923;29;20043;-63
2022/04/01 12:10:26;;;;;;;5.28;1.10;;;;;;;;;;4912425;29;20044;-63
2022/04/01 12:13:02;;;;;;;4.55;1.00;;;;;;;;;;4910826;29;20024;-63
2022/04/01 12:15:39;;;;;;;4.28;1.50;;;;;;;;;;4917670;29;20028;-63
2022/04/01 12:18:10;;;;;;;6.93;1.70;;;;;;;;;;4914384;29;20091;-63
2022/04/01 12:20:44;;;;;;;6.07;1.23;;;;;;;;;;4914895;29;20036;-63
2022/04/01 12:23:10;;;;;;;3.35;1.00;;;;;;;;;;4915068;29;20036;-63
2022/04/01 12:25:38;;;;;;;4.13;1.13;;;;;;;;;;4914929;29;20032;-63
2022/04/01 12:28:05;;;;;;;5.50;1.20;;;;;;;;;;4914029;29;20028;-63
2022/04/01 12:30:33;;;;;;;7.03;1.92;;;;;;;;;;4915301;29;20442;-63
2022/04/01 12:33:01;;;;;;;6.85;1.45;;;;;;;;;;4915020;29;20046;-63
2022/04/01 12:35:27;;;;;;;4.35;1.17;;;;;;;;;;4915067;29;20028;-63
2022/04/01 12:38:04;;;;;;;7.10;1.45;;;;;;;;;;4914588;29;20043;-63
2022/04/01 12:40:45;;;;;;;6.80;1.33;;;;;;;;;;4914689;29;20032;-63
2022/04/01 12:43:30;;;;;;;2.75;0.85;;;;;;;;;;4915143;29;20499;-63
2022/04/01 12:45:57;;;;;;;4.43;1.30;;;;;;;;;;4912842;29;20028;-63
2022/04/01 12:48:24;;;;;;;7.75;1.95;;;;;;;;;;4915992;29;20020;-63
2022/04/01 12:50:50;;;;;;;5.85;1.50;;;;;;;;;;4917826;29;20141;-63
2022/04/01 12:53:16;;;;;;;17.05;2.50;;;;;;;;;;4914308;29;20060;-63
2022/04/01 12:55:43;;;;;;;8.48;1.63;;;;;;;;;;4915260;29;20443;-63
2022/04/01 12:58:14;;;;;;;3.90;1.73;;;;;;;;;;4914440;29;20043;-63
2022/04/01 13:00:40;;;;;;;4.90;1.23;;;;;;;;;;4919471;29;20023;-63
2022/04/01 13:03:08;;;;;;;14.90;1.30;;;;;;;;;;4919857;29;20388;-63
2022/04/01 13:05:34;;;;;;;8.40;1.10;;;;;;;;;;4914792;29;20032;-63
2022/04/01 13:08:01;;;;;;;5.07;1.27;;;;;;;;;;4907751;29;20475;-63
2022/04/01 13:10:27;;;;;;;4.25;0.90;;;;;;;;;;4916537;29;20031;-63
2022/04/01 13:12:55;;;;;;;4.15;1.50;;;;;;;;;;4919198;29;20082;-63
2022/04/01 13:15:24;;;;;;;10.63;1.20;;;;;;;;;;4918821;29;20036;-63
2022/04/01 13:17:54;;;;;;;4.40;1.40;;;;;;;;;;4919229;29;20020;-63
2022/04/01 13:20:21;;;;;;;4.47;1.13;;;;;;;;;;4919546;29;20040;-63
2022/04/01 13:22:48;;;;;;;5.38;1.35;;;;;;;;;;4918215;29;20490;-63
2022/04/01 13:25:14;;;;;;;3.78;1.00;;;;;;;;;;4917614;29;20028;-64
2022/04/01 13:27:41;;;;;;;5.25;1.35;;;;;;;;;;4921172;29;20042;-63
2022/04/01 13:30:08;;;;;;;5.45;1.20;;;;;;;;;;4920429;29;20028;-63
2022/04/01 13:32:34;;;;;;;8.93;2.15;;;;;;;;;;4919161;29;20115;-63
2022/04/01 13:35:01;;;;;;;6.10;1.25;;;;;;;;;;4918679;29;20028;-63
2022/04/01 13:37:27;;;;;;;6.90;1.27;;;;;;;;;;4918383;29;20215;-63
2022/04/01 13:39:54;;;;;;;4.32;1.20;;;;;;;;;;4919020;29;20469;-63
2022/04/01 13:42:23;;;;;;;3.75;1.00;;;;;;;;;;4918333;29;20416;-63
2022/04/01 13:44:49;;;;;;;5.47;1.10;;;;;;;;;;4918358;29;20035;-63
2022/04/01 13:47:17;;;;;;;3.88;1.10;;;;;;;;;;4925930;29;20028;-63
2022/04/01 13:49:43;;;;;;;13.00;1.48;;;;;;;;;;4933247;29;20047;-63
2022/04/01 13:52:10;;;;;;;6.15;1.27;;;;;;;;;;4917232;29;20506;-63
2022/04/01 13:54:36;;;;;;;8.82;1.65;;;;;;;;;;4916574;29;20046;-63
2022/04/01 13:57:02;;;;;;;5.38;1.38;;;;;;;;;;4916583;29;20145;-63
2022/04/01 13:59:29;;;;;;;6.20;1.15;;;;;;;;;;4916517;29;20042;-63
2022/04/01 14:01:56;;;;;;;8.65;1.42;;;;;;;;;;4916962;29;20028;-63
2022/04/01 14:04:22;;;;;;;6.00;1.48;;;;;;;;;;4916069;29;20016;-63
2022/04/01 14:06:50;;;;;;;6.18;1.23;;;;;;;;;;4916380;29;20020;-63
2022/04/01 14:09:16;;;;;;;4.03;1.05;;;;;;;;;;4916272;29;20024;-63
2022/04/01 14:11:42;;;;;;;5.43;1.15;;;;;;;;;;4916618;29;20488;-63
2022/04/01 14:14:09;;;;;;;3.90;1.17;;;;;;;;;;4917400;29;20066;-63
2022/04/01 14:16:37;;;;;;;3.20;0.90;;;;;;;;;;4918022;29;20032;-63
2022/04/01 14:19:05;;;;;;;8.60;1.17;;;;;;;;;;4923723;29;20035;-63
2022/04/01 14:21:31;;;;;;;5.75;1.25;;;;;;;;;;4914550;29;20056;-63
2022/04/01 14:23:57;;;;;;;4.93;0.98;;;;;;;;;;4916221;29;20034;-63
2022/04/01 14:26:28;;;;;;;3.30;0.90;;;;;;;;;;4916064;29;20032;-63
2022/04/01 14:28:55;;;;;;;3.38;0.90;;;;;;;;;;4916956;29;20036;-63
2022/04/01 14:31:22;;;;;;;2.58;1.55;;;;;;;;;;4916409;29;20035;-63
2022/04/01 14:33:48;;;;;;;6.82;1.00;;;;;;;;;;4915918;29;20017;-63
2022/04/01 14:36:15;;;;;;;6.75;1.48;;;;;;;;;;4915571;29;20040;-63
2022/04/01 14:38:42;;;;;;;6.18;1.23;;;;;;;;;;4915326;29;20054;-63
2022/04/01 14:41:08;;;;;;;9.27;1.13;;;;;;;;;;4915897;29;20051;-63
2022/04/01 14:43:34;;;;;;;7.30;1.55;;;;;;;;;;4917202;29;20039;-63
2022/04/01 14:46:00;;;;;;;10.25;1.27;;;;;;;;;;4917803;29;20400;-63
2022/04/01 14:48:26;;;;;;;8.63;1.55;;;;;;;;;;4916543;29;20117;-63
2022/04/01 14:50:53;;;;;;;4.40;1.05;;;;;;;;;;4917165;29;20028;-63
2022/04/01 14:53:20;;;;;;;3.13;1.58;;;;;;;;;;4917053;29;20024;-63
2022/04/01 14:55:46;;;;;;;2.83;0.80;;;;;;;;;;4917117;29;20110;-63
2022/04/01 14:58:12;;;;;;;10.68;1.25;;;;;;;;;;4916976;29;20036;-63
2022/04/01 15:00:39;;;;;;;3.95;1.23;;;;;;;;;;4916470;29;20095;-63
2022/04/01 15:03:05;;;;;;;4.03;0.90;;;;;;;;;;4916468;29;20028;-63
2022/04/01 15:05:31;;;;;;;6.38;1.25;;;;;;;;;;4919558;29;20118;-63
2022/04/01 15:07:58;;;;;;;4.45;1.23;;;;;;;;;;4913340;29;20544;-63
2022/04/01 15:10:24;;;;;;;8.07;1.38;;;;;;;;;;4913073;29;20123;-64
2022/04/01 15:12:50;;;;;;;4.75;1.20;;;;;;;;;;4915319;29;20099;-64
2022/04/01 15:15:17;;;;;;;7.50;1.45;;;;;;;;;;4915457;29;20122;-64
2022/04/01 15:17:43;;;;;;;5.05;1.20;;;;;;;;;;4916102;29;20485;-64
2022/04/01 15:20:11;;;;;;;4.82;1.27;;;;;;;;;;4914381;29;20066;-64
2022/04/01 15:22:38;;;;;;;7.90;1.25;;;;;;;;;;4900524;29;20076;-64
2022/04/01 15:25:05;;;;;;;6.78;1.13;;;;;;;;;;4895791;29;20035;-64